Time;durP1;ratioP1;P1;durP2;ratioP2;P2;SDS_P1;SDS_P2;PMS_P1;PMS_P2;Temp;Humidity;BMP_temperature;BMP_pressure;BME280_temperature;BME280_humidity;BME280_pressure;Samples;Min_cycle;Max_cycle;Signal;HPM_P1;HPM_P2
2023/07/17 00:01:03;;;;;;;3.50;2.22;;;;;;;;;;5014505;28;20029;-73
2023/07/17 00:03:28;;;;;;;4.47;2.30;;;;;;;;;;5014408;28;20057;-74
2023/07/17 00:05:57;;;;;;;5.85;2.50;;;;;;;;;;5013077;28;20634;-73
2023/07/17 00:08:22;;;;;;;4.38;2.15;;;;;;;;;;5014306;28;20022;-73
2023/07/17 00:10:48;;;;;;;4.47;2.40;;;;;;;;;;5014313;28;20414;-74
2023/07/17 00:13:13;;;;;;;5.78;2.22;;;;;;;;;;5013049;28;20030;-75
2023/07/17 00:15:39;;;;;;;4.25;2.10;;;;;;;;;;5014176;28;20072;-74
2023/07/17 00:18:04;;;;;;;4.15;2.20;;;;;;;;;;5014428;28;20030;-74
2023/07/17 00:20:29;;;;;;;4.78;2.42;;;;;;;;;;5014435;28;20020;-74
2023/07/17 00:22:55;;;;;;;4.57;2.35;;;;;;;;;;5014089;28;20053;-76
2023/07/17 00:25:20;;;;;;;4.00;2.30;;;;;;;;;;5012807;28;20121;-74
2023/07/17 00:27:45;;;;;;;8.27;2.70;;;;;;;;;;5012706;28;20096;-73
2023/07/17 00:30:12;;;;;;;5.33;2.70;;;;;;;;;;5014163;28;20026;-73
2023/07/17 00:32:37;;;;;;;5.95;2.38;;;;;;;;;;5013901;28;20247;-74
2023/07/17 00:35:03;;;;;;;4.72;2.47;;;;;;;;;;5014180;28;20026;-74
2023/07/17 00:37:28;;;;;;;3.65;2.38;;;;;;;;;;5014110;28;20104;-76
2023/07/17 00:39:53;;;;;;;4.03;2.40;;;;;;;;;;5013877;28;20022;-73
2023/07/17 00:42:19;;;;;;;6.18;2.45;;;;;;;;;;5013761;28;20028;-73
2023/07/17 00:44:44;;;;;;;5.03;2.40;;;;;;;;;;5014324;28;20021;-75
2023/07/17 00:47:10;;;;;;;7.17;2.47;;;;;;;;;;5012360;28;20053;-73
2023/07/17 00:49:36;;;;;;;4.70;2.53;;;;;;;;;;5012347;28;20298;-74
2023/07/17 00:52:01;;;;;;;7.55;2.28;;;;;;;;;;5013635;28;20030;-74
2023/07/17 00:54:28;;;;;;;4.03;2.53;;;;;;;;;;5013553;28;20017;-74
2023/07/17 00:56:56;;;;;;;5.80;2.53;;;;;;;;;;5013579;28;20395;-75
2023/07/17 00:59:23;;;;;;;3.92;2.33;;;;;;;;;;5013861;28;20423;-74
2023/07/17 01:01:48;;;;;;;5.18;2.60;;;;;;;;;;5013643;28;20531;-75
2023/07/17 01:04:14;;;;;;;5.80;2.65;;;;;;;;;;5014009;28;20112;-74
2023/07/17 01:06:39;;;;;;;6.43;2.65;;;;;;;;;;5012075;28;20071;-73
2023/07/17 01:09:06;;;;;;;7.60;2.63;;;;;;;;;;5013218;28;20501;-73
2023/07/17 01:11:34;;;;;;;3.50;2.25;;;;;;;;;;5013106;28;20037;-74
2023/07/17 01:14:00;;;;;;;5.43;2.10;;;;;;;;;;5013372;28;20088;-73
2023/07/17 01:16:25;;;;;;;4.43;2.30;;;;;;;;;;5013252;28;20084;-73
2023/07/17 01:18:50;;;;;;;5.15;2.15;;;;;;;;;;5013310;28;20018;-73
2023/07/17 01:21:19;;;;;;;4.30;2.28;;;;;;;;;;5013301;28;20017;-74
2023/07/17 01:23:45;;;;;;;4.25;2.40;;;;;;;;;;5012102;28;20030;-73
2023/07/17 01:26:15;;;;;;;4.65;2.40;;;;;;;;;;5013504;28;20103;-73
2023/07/17 01:28:41;;;;;;;5.82;2.42;;;;;;;;;;5013342;28;20117;-73
2023/07/17 01:31:06;;;;;;;4.13;2.33;;;;;;;;;;5013364;28;20030;-73
2023/07/17 01:33:32;;;;;;;5.13;2.40;;;;;;;;;;5014806;28;20029;-74
2023/07/17 01:35:59;;;;;;;5.50;2.50;;;;;;;;;;5014454;28;20021;-71
2023/07/17 01:38:24;;;;;;;5.32;2.20;;;;;;;;;;5013608;28;20036;-75
2023/07/17 01:40:51;;;;;;;4.43;2.30;;;;;;;;;;5014224;28;20114;-72
2023/07/17 01:43:16;;;;;;;6.80;2.50;;;;;;;;;;5013830;28;20034;-74
2023/07/17 01:45:41;;;;;;;5.20;2.40;;;;;;;;;;5012869;28;20040;-73
2023/07/17 01:48:06;;;;;;;3.87;2.20;;;;;;;;;;5013186;28;20255;-72
2023/07/17 01:50:32;;;;;;;3.95;2.00;;;;;;;;;;5013943;28;20336;-72
2023/07/17 01:52:57;;;;;;;6.40;2.30;;;;;;;;;;5013550;28;20077;-72
2023/07/17 01:55:22;;;;;;;2.80;1.90;;;;;;;;;;5011915;28;20264;-72
2023/07/17 01:57:47;;;;;;;8.33;2.37;;;;;;;;;;5011890;28;20354;-72
2023/07/17 02:00:13;;;;;;;3.37;2.37;;;;;;;;;;5013079;28;20314;-74
2023/07/17 02:02:38;;;;;;;5.45;2.35;;;;;;;;;;5013375;28;20264;-73
2023/07/17 02:05:04;;;;;;;6.53;2.13;;;;;;;;;;5014263;28;20093;-73
2023/07/17 02:07:29;;;;;;;5.65;1.92;;;;;;;;;;5013228;28;20432;-72
2023/07/17 02:09:54;;;;;;;6.20;2.20;;;;;;;;;;5011737;28;20022;-72
2023/07/17 02:12:19;;;;;;;4.63;2.40;;;;;;;;;;5013197;28;20255;-72
2023/07/17 02:14:44;;;;;;;4.20;2.10;;;;;;;;;;5012855;28;20353;-72
2023/07/17 02:17:10;;;;;;;3.63;2.13;;;;;;;;;;5012661;28;20302;-72
2023/07/17 02:19:35;;;;;;;6.93;2.45;;;;;;;;;;5012716;28;20282;-72
2023/07/17 02:22:00;;;;;;;6.43;2.50;;;;;;;;;;5015013;28;20460;-72
2023/07/17 02:24:26;;;;;;;4.03;2.40;;;;;;;;;;5016301;28;20022;-73
2023/07/17 02:26:51;;;;;;;6.03;2.50;;;;;;;;;;5016184;28;20361;-72
2023/07/17 02:29:16;;;;;;;3.30;2.17;;;;;;;;;;5016417;28;20026;-72
2023/07/17 02:31:42;;;;;;;5.90;2.53;;;;;;;;;;5016362;28;20401;-73
2023/07/17 02:34:07;;;;;;;4.77;2.20;;;;;;;;;;5016391;28;20342;-72
2023/07/17 02:36:32;;;;;;;10.83;2.33;;;;;;;;;;5016064;28;20263;-72
2023/07/17 02:38:57;;;;;;;5.72;2.33;;;;;;;;;;5016108;28;20259;-72
2023/07/17 02:41:23;;;;;;;5.40;2.23;;;;;;;;;;5014692;28;20022;-72
2023/07/17 02:43:48;;;;;;;4.28;2.20;;;;;;;;;;5015940;28;20850;-72
2023/07/17 02:46:13;;;;;;;3.55;2.05;;;;;;;;;;5014581;28;20026;-73
2023/07/17 02:48:38;;;;;;;4.47;2.00;;;;;;;;;;5016005;28;20510;-72
2023/07/17 02:51:04;;;;;;;3.45;2.20;;;;;;;;;;5016152;28;20251;-72
2023/07/17 02:53:30;;;;;;;6.63;2.70;;;;;;;;;;5015845;28;20109;-72
2023/07/17 02:55:55;;;;;;;5.20;2.10;;;;;;;;;;5015717;28;20353;-72
2023/07/17 02:58:21;;;;;;;7.20;2.47;;;;;;;;;;5015683;28;20109;-72
2023/07/17 03:00:46;;;;;;;5.68;2.30;;;;;;;;;;5015631;28;20025;-73
2023/07/17 03:03:11;;;;;;;3.33;1.98;;;;;;;;;;5015672;28;20072;-74
2023/07/17 03:05:37;;;;;;;3.78;1.95;;;;;;;;;;5014314;28;20025;-72
2023/07/17 03:08:03;;;;;;;4.93;2.33;;;;;;;;;;5015435;28;20488;-72
2023/07/17 03:10:29;;;;;;;3.03;2.10;;;;;;;;;;5015446;28;20087;-73
2023/07/17 03:12:55;;;;;;;4.97;2.17;;;;;;;;;;5014201;28;20083;-72
2023/07/17 03:15:20;;;;;;;6.17;2.30;;;;;;;;;;5015644;28;20381;-74
2023/07/17 03:17:45;;;;;;;3.78;2.28;;;;;;;;;;5015294;28;20263;-73
2023/07/17 03:20:11;;;;;;;7.27;2.40;;;;;;;;;;5015289;28;20473;-73
2023/07/17 03:22:37;;;;;;;5.13;2.50;;;;;;;;;;5013904;28;20627;-72
2023/07/17 03:25:06;;;;;;;3.28;2.20;;;;;;;;;;5013891;28;20396;-72
2023/07/17 03:27:32;;;;;;;4.07;2.25;;;;;;;;;;5015121;28;20048;-72
2023/07/17 03:29:57;;;;;;;4.10;2.10;;;;;;;;;;5013735;28;20133;-72
2023/07/17 03:32:22;;;;;;;5.22;2.20;;;;;;;;;;5014320;28;20492;-72
2023/07/17 03:34:48;;;;;;;4.63;2.10;;;;;;;;;;5014962;28;20062;-72
2023/07/17 03:37:13;;;;;;;4.33;2.70;;;;;;;;;;5014899;28;20255;-72
2023/07/17 03:39:39;;;;;;;5.88;2.38;;;;;;;;;;5014874;28;20603;-72
2023/07/17 03:42:10;;;;;;;5.55;2.30;;;;;;;;;;5013583;28;20436;-72
2023/07/17 03:44:35;;;;;;;5.45;2.58;;;;;;;;;;5014901;28;20026;-72
2023/07/17 03:47:00;;;;;;;4.32;2.38;;;;;;;;;;5013485;28;20025;-72
2023/07/17 03:49:26;;;;;;;4.17;2.10;;;;;;;;;;5013317;28;20477;-73
2023/07/17 03:51:51;;;;;;;6.40;2.25;;;;;;;;;;5014692;28;20273;-73
2023/07/17 03:54:16;;;;;;;4.30;2.10;;;;;;;;;;5014763;28;20476;-73
2023/07/17 03:56:41;;;;;;;5.17;2.40;;;;;;;;;;5013214;28;20607;-72
2023/07/17 03:59:07;;;;;;;3.90;2.43;;;;;;;;;;5014488;28;20398;-73
2023/07/17 04:01:32;;;;;;;3.25;1.98;;;;;;;;;;5014479;28;20331;-73
2023/07/17 04:03:57;;;;;;;4.47;2.50;;;;;;;;;;5013210;28;20391;-71
2023/07/17 04:06:22;;;;;;;6.00;2.47;;;;;;;;;;5014552;28;20745;-72
2023/07/17 04:08:48;;;;;;;3.47;2.22;;;;;;;;;;5014375;28;20275;-72
2023/07/17 04:11:14;;;;;;;6.00;2.63;;;;;;;;;;5014318;28;20114;-73
2023/07/17 04:13:39;;;;;;;4.55;2.20;;;;;;;;;;5012981;28;20037;-73
2023/07/17 04:16:05;;;;;;;7.10;2.45;;;;;;;;;;5014194;28;20018;-73
2023/07/17 04:18:30;;;;;;;5.22;2.38;;;;;;;;;;5014216;28;20032;-71
2023/07/17 04:20:56;;;;;;;4.13;2.45;;;;;;;;;;5014406;28;20048;-73
2023/07/17 04:23:21;;;;;;;4.75;2.30;;;;;;;;;;5013565;28;20029;-73
2023/07/17 04:25:46;;;;;;;3.97;2.27;;;;;;;;;;5014302;28;20354;-71
2023/07/17 04:28:11;;;;;;;5.45;2.58;;;;;;;;;;5013943;28;20290;-72
2023/07/17 04:30:37;;;;;;;5.88;2.50;;;;;;;;;;5013845;28;20060;-71
2023/07/17 04:33:02;;;;;;;5.72;2.60;;;;;;;;;;5013935;28;20054;-72
2023/07/17 04:35:28;;;;;;;7.07;2.45;;;;;;;;;;5013935;28;20022;-72
2023/07/17 04:37:54;;;;;;;4.37;2.30;;;;;;;;;;5013837;28;20030;-72
2023/07/17 04:40:20;;;;;;;10.32;2.25;;;;;;;;;;5012501;28;20267;-72
2023/07/17 04:42:45;;;;;;;4.60;2.45;;;;;;;;;;5014360;28;20369;-72
2023/07/17 04:45:12;;;;;;;5.17;2.50;;;;;;;;;;5013683;28;20105;-72
2023/07/17 04:47:37;;;;;;;5.57;2.70;;;;;;;;;;5013624;28;20259;-73
2023/07/17 04:50:03;;;;;;;5.25;2.55;;;;;;;;;;5013489;28;20040;-72
2023/07/17 04:52:29;;;;;;;4.63;2.30;;;;;;;;;;5013635;28;20105;-72
2023/07/17 04:54:54;;;;;;;7.07;2.78;;;;;;;;;;5013562;28;20064;-72
2023/07/17 04:57:19;;;;;;;8.95;2.60;;;;;;;;;;5013492;28;20499;-72
2023/07/17 04:59:46;;;;;;;6.15;2.80;;;;;;;;;;5013815;28;20026;-72
2023/07/17 05:02:11;;;;;;;5.07;2.55;;;;;;;;;;5013518;28;20520;-72
2023/07/17 05:04:37;;;;;;;7.28;2.42;;;;;;;;;;5013476;28;20086;-72
2023/07/17 05:07:02;;;;;;;6.35;2.60;;;;;;;;;;5012206;28;20393;-72
2023/07/17 05:09:27;;;;;;;4.18;2.40;;;;;;;;;;5013378;28;20075;-72
2023/07/17 05:11:52;;;;;;;7.17;2.60;;;;;;;;;;5012156;28;20109;-72
2023/07/17 05:14:18;;;;;;;4.40;2.47;;;;;;;;;;5013615;28;20365;-72
2023/07/17 05:16:44;;;;;;;8.10;2.50;;;;;;;;;;5013219;28;20272;-72
2023/07/17 05:19:09;;;;;;;4.55;2.38;;;;;;;;;;5014104;28;20442;-72
2023/07/17 05:21:34;;;;;;;4.68;2.58;;;;;;;;;;5012043;28;20103;-72
2023/07/17 05:24:00;;;;;;;5.30;2.47;;;;;;;;;;5013275;28;20018;-72
2023/07/17 05:26:25;;;;;;;4.72;2.60;;;;;;;;;;5013158;28;20073;-72
2023/07/17 05:28:51;;;;;;;6.95;3.10;;;;;;;;;;5013071;28;20022;-73
2023/07/17 05:31:16;;;;;;;5.75;2.80;;;;;;;;;;5013237;28;20033;-72
2023/07/17 05:33:42;;;;;;;5.40;2.20;;;;;;;;;;5013423;28;20026;-72
2023/07/17 05:36:07;;;;;;;3.60;2.38;;;;;;;;;;5013104;28;20030;-72
2023/07/17 05:38:32;;;;;;;3.93;2.40;;;;;;;;;;5013061;28;20029;-73
2023/07/17 05:41:02;;;;;;;3.50;2.20;;;;;;;;;;5013151;28;20279;-72
2023/07/17 05:43:29;;;;;;;4.90;2.47;;;;;;;;;;5013145;28;20263;-72
2023/07/17 05:45:56;;;;;;;5.05;2.40;;;;;;;;;;5013128;28;20065;-72
2023/07/17 05:48:21;;;;;;;5.85;2.88;;;;;;;;;;5011810;28;20413;-72
2023/07/17 05:50:46;;;;;;;5.20;2.40;;;;;;;;;;5013310;28;20044;-72
2023/07/17 05:53:11;;;;;;;6.80;2.43;;;;;;;;;;5013332;28;20108;-72
2023/07/17 05:55:37;;;;;;;5.72;2.50;;;;;;;;;;5013111;28;20260;-71
2023/07/17 05:58:02;;;;;;;3.33;2.33;;;;;;;;;;5016893;28;20101;-73
2023/07/17 06:00:27;;;;;;;3.93;2.13;;;;;;;;;;5016871;28;20255;-72
2023/07/17 06:02:54;;;;;;;3.75;2.30;;;;;;;;;;5017052;28;20263;-72
2023/07/17 06:05:19;;;;;;;5.15;2.38;;;;;;;;;;5016712;28;20018;-72
2023/07/17 06:07:44;;;;;;;7.10;2.58;;;;;;;;;;5016595;28;20022;-73
2023/07/17 06:10:12;;;;;;;4.45;2.60;;;;;;;;;;5016586;28;20037;-73
2023/07/17 06:12:37;;;;;;;5.60;2.38;;;;;;;;;;5017170;28;20057;-72
2023/07/17 06:15:03;;;;;;;3.72;2.30;;;;;;;;;;5015365;28;20060;-73
2023/07/17 06:17:29;;;;;;;4.63;2.20;;;;;;;;;;5016394;28;20084;-72
2023/07/17 06:19:54;;;;;;;3.67;2.33;;;;;;;;;;5016729;28;20080;-72
2023/07/17 06:22:19;;;;;;;7.70;2.27;;;;;;;;;;5016632;28;20095;-72
2023/07/17 06:24:44;;;;;;;4.47;2.20;;;;;;;;;;5016352;28;20256;-72
2023/07/17 06:27:09;;;;;;;4.40;2.40;;;;;;;;;;5016230;28;20334;-72
2023/07/17 06:29:35;;;;;;;5.23;2.60;;;;;;;;;;5015705;28;20809;-72
2023/07/17 06:32:00;;;;;;;4.33;2.40;;;;;;;;;;5016195;28;20691;-72
2023/07/17 06:34:25;;;;;;;4.85;2.60;;;;;;;;;;5016410;28;20264;-72
2023/07/17 06:36:50;;;;;;;5.38;2.53;;;;;;;;;;5016177;28;20061;-72
2023/07/17 06:39:16;;;;;;;5.25;2.78;;;;;;;;;;5016070;28;20104;-72
2023/07/17 06:41:41;;;;;;;5.82;2.50;;;;;;;;;;5015964;28;20110;-72
2023/07/17 06:44:06;;;;;;;8.37;2.67;;;;;;;;;;5016000;28;20030;-73
2023/07/17 06:46:32;;;;;;;6.40;2.50;;;;;;;;;;5015889;28;20321;-72
2023/07/17 06:48:57;;;;;;;7.20;2.47;;;;;;;;;;5015673;28;20489;-72
2023/07/17 06:51:22;;;;;;;4.97;2.63;;;;;;;;;;5016108;28;20313;-72
2023/07/17 06:53:48;;;;;;;5.18;2.63;;;;;;;;;;5014490;28;20263;-72
2023/07/17 06:56:13;;;;;;;4.55;2.50;;;;;;;;;;5015739;28;20041;-72
2023/07/17 06:58:39;;;;;;;3.43;2.50;;;;;;;;;;5015972;28;20022;-72
2023/07/17 07:01:05;;;;;;;6.85;2.80;;;;;;;;;;5014332;28;20355;-72
2023/07/17 07:03:31;;;;;;;4.63;2.63;;;;;;;;;;5015592;28;20034;-72
2023/07/17 07:05:57;;;;;;;6.93;2.70;;;;;;;;;;5015431;28;20075;-72
2023/07/17 07:08:27;;;;;;;4.78;2.50;;;;;;;;;;5012997;28;20032;-72
2023/07/17 07:10:54;;;;;;;6.72;2.70;;;;;;;;;;5014131;28;20065;-73
2023/07/17 07:13:20;;;;;;;10.50;2.80;;;;;;;;;;5015386;28;20548;-72
2023/07/17 07:15:45;;;;;;;7.68;2.58;;;;;;;;;;5015351;28;20036;-74
2023/07/17 07:18:10;;;;;;;6.82;2.75;;;;;;;;;;5015266;28;20026;-73
2023/07/17 07:20:35;;;;;;;9.85;3.20;;;;;;;;;;5015244;28;20029;-72
2023/07/17 07:23:01;;;;;;;10.02;2.95;;;;;;;;;;5015825;28;20042;-73
2023/07/17 07:25:26;;;;;;;9.03;2.80;;;;;;;;;;5015212;28;20029;-72
2023/07/17 07:27:52;;;;;;;7.83;2.70;;;;;;;;;;5015068;28;20732;-72
2023/07/17 07:30:17;;;;;;;6.63;2.80;;;;;;;;;;5015780;28;20271;-73
2023/07/17 07:32:42;;;;;;;6.77;2.73;;;;;;;;;;5015082;28;20389;-73
2023/07/17 07:35:08;;;;;;;4.18;2.83;;;;;;;;;;5014995;28;20259;-72
2023/07/17 07:37:33;;;;;;;8.23;2.95;;;;;;;;;;5014648;28;20473;-74
2023/07/17 07:39:58;;;;;;;5.47;3.00;;;;;;;;;;5013438;28;20024;-75
2023/07/17 07:42:24;;;;;;;7.20;3.00;;;;;;;;;;5014449;28;20026;-73
2023/07/17 07:44:49;;;;;;;7.32;2.65;;;;;;;;;;5015070;28;20270;-73
2023/07/17 07:47:14;;;;;;;4.10;2.83;;;;;;;;;;5013488;28;20101;-73
2023/07/17 07:49:40;;;;;;;6.40;2.97;;;;;;;;;;5012972;28;20654;-72
2023/07/17 07:52:05;;;;;;;7.50;2.90;;;;;;;;;;5014648;28;20255;-73
2023/07/17 07:54:31;;;;;;;11.90;3.30;;;;;;;;;;5013638;28;20342;-74
2023/07/17 07:56:56;;;;;;;7.78;3.00;;;;;;;;;;5014528;28;20440;-74
2023/07/17 07:59:21;;;;;;;7.55;3.08;;;;;;;;;;5015009;28;20025;-76
2023/07/17 08:01:47;;;;;;;6.28;2.80;;;;;;;;;;5015061;28;20049;-74
2023/07/17 08:04:12;;;;;;;6.57;2.77;;;;;;;;;;5015084;28;20518;-75
2023/07/17 08:06:37;;;;;;;13.67;3.20;;;;;;;;;;5015413;28;20695;-79
2023/07/17 08:09:03;;;;;;;4.73;2.73;;;;;;;;;;5014538;28;20280;-74
2023/07/17 08:11:28;;;;;;;4.80;3.00;;;;;;;;;;5014398;28;20320;-76
2023/07/17 08:13:53;;;;;;;7.57;3.13;;;;;;;;;;5013232;28;20303;-75
2023/07/17 08:16:18;;;;;;;5.20;2.83;;;;;;;;;;5012869;28;20757;-74
2023/07/17 08:18:46;;;;;;;7.07;2.90;;;;;;;;;;5013137;28;20259;-74
2023/07/17 08:21:11;;;;;;;6.25;2.83;;;;;;;;;;5013936;28;20251;-77
2023/07/17 08:23:36;;;;;;;7.27;3.10;;;;;;;;;;5013211;28;20026;-76
2023/07/17 08:26:02;;;;;;;7.30;2.90;;;;;;;;;;5013641;28;20267;-76
2023/07/17 08:28:27;;;;;;;11.52;2.70;;;;;;;;;;5013283;28;20114;-76
2023/07/17 08:30:52;;;;;;;6.68;3.25;;;;;;;;;;5013871;28;20485;-76
2023/07/17 08:33:18;;;;;;;7.60;3.10;;;;;;;;;;5015249;28;20034;-79
2023/07/17 08:35:43;;;;;;;6.13;2.97;;;;;;;;;;5014736;28;20022;-76
2023/07/17 08:38:08;;;;;;;5.30;3.00;;;;;;;;;;5013841;28;20433;-77
2023/07/17 08:40:39;;;;;;;6.90;3.10;;;;;;;;;;5012635;28;20299;-75
2023/07/17 08:43:06;;;;;;;6.72;2.97;;;;;;;;;;5014137;28;20552;-76
2023/07/17 08:45:32;;;;;;;7.13;3.20;;;;;;;;;;5013711;28;20022;-77
2023/07/17 08:47:59;;;;;;;5.75;2.70;;;;;;;;;;5014898;28;20030;-76
2023/07/17 08:50:25;;;;;;;6.35;3.05;;;;;;;;;;5013541;28;20125;-76
2023/07/17 08:52:52;;;;;;;6.80;3.08;;;;;;;;;;5014305;28;20037;-76
2023/07/17 08:55:17;;;;;;;5.00;2.70;;;;;;;;;;5013841;28;20022;-76
2023/07/17 08:57:44;;;;;;;7.10;3.10;;;;;;;;;;5014638;28;20389;-76
2023/07/17 09:00:15;;;;;;;4.22;2.80;;;;;;;;;;5013683;28;20435;-77
2023/07/17 09:02:40;;;;;;;12.07;2.97;;;;;;;;;;5013626;28;20033;-76
2023/07/17 09:05:07;;;;;;;6.07;2.88;;;;;;;;;;5013610;28;20029;-77
2023/07/17 09:07:32;;;;;;;6.80;3.15;;;;;;;;;;5013416;28;20481;-76
2023/07/17 09:10:19;;;;;;;8.90;2.80;;;;;;;;;;5014358;28;20040;-77
2023/07/17 09:13:04;;;;;;;5.45;3.20;;;;;;;;;;5013585;28;20263;-75
2023/07/17 09:15:31;;;;;;;7.32;2.90;;;;;;;;;;5014809;28;20397;-77
2023/07/17 09:17:56;;;;;;;9.60;3.17;;;;;;;;;;5014536;28;20099;-76
2023/07/17 09:20:22;;;;;;;10.80;3.05;;;;;;;;;;5013534;28;20485;-76
2023/07/17 09:22:49;;;;;;;6.53;2.92;;;;;;;;;;5012061;28;20029;-76
2023/07/17 09:25:15;;;;;;;8.20;3.20;;;;;;;;;;5013330;28;20040;-76
2023/07/17 09:27:49;;;;;;;9.02;3.33;;;;;;;;;;5012166;28;20029;-76
2023/07/17 09:30:22;;;;;;;9.32;3.28;;;;;;;;;;5013109;28;20028;-76
2023/07/17 09:32:49;;;;;;;8.85;3.17;;;;;;;;;;5016373;28;20080;-76
2023/07/17 09:35:18;;;;;;;5.57;3.22;;;;;;;;;;5015585;28;20025;-76
2023/07/17 09:37:44;;;;;;;7.95;3.00;;;;;;;;;;5015834;28;20036;-76
2023/07/17 09:40:11;;;;;;;5.03;2.95;;;;;;;;;;5016152;28;20029;-76
2023/07/17 09:42:39;;;;;;;11.60;3.20;;;;;;;;;;5014723;28;20079;-77
2023/07/17 09:45:05;;;;;;;6.25;2.80;;;;;;;;;;5017136;28;20028;-77
2023/07/17 09:47:34;;;;;;;6.72;3.00;;;;;;;;;;5017039;28;20116;-76
2023/07/17 09:50:01;;;;;;;6.97;2.97;;;;;;;;;;5015807;28;20397;-75
2023/07/17 09:52:30;;;;;;;9.95;2.97;;;;;;;;;;5016846;28;20029;-76
2023/07/17 09:55:00;;;;;;;5.32;2.80;;;;;;;;;;5017145;28;20172;-75
2023/07/17 09:57:31;;;;;;;7.10;2.85;;;;;;;;;;5015784;28;20029;-75
2023/07/17 10:00:19;;;;;;;5.13;2.90;;;;;;;;;;5015736;28;20091;-75
2023/07/17 10:03:09;;;;;;;9.05;2.95;;;;;;;;;;5017091;28;20037;-76
2023/07/17 10:05:35;;;;;;;5.38;2.97;;;;;;;;;;5006796;28;20128;-77
2023/07/17 10:08:05;;;;;;;9.50;3.00;;;;;;;;;;5016708;28;20057;-76
2023/07/17 10:10:30;;;;;;;5.93;2.83;;;;;;;;;;5015285;28;20481;-76
2023/07/17 10:12:56;;;;;;;5.97;2.60;;;;;;;;;;5016655;28;20076;-77
2023/07/17 10:15:23;;;;;;;5.30;2.80;;;;;;;;;;5015308;28;20297;-76
2023/07/17 10:17:59;;;;;;;9.50;3.00;;;;;;;;;;5015532;28;20022;-76
2023/07/17 10:20:25;;;;;;;5.40;2.72;;;;;;;;;;5015326;28;20026;-77
2023/07/17 10:22:51;;;;;;;3.67;2.53;;;;;;;;;;5015892;28;20030;-76
2023/07/17 10:25:19;;;;;;;6.88;2.83;;;;;;;;;;5016591;28;20026;-76
2023/07/17 10:27:54;;;;;;;6.95;2.60;;;;;;;;;;5015378;28;20048;-77
2023/07/17 10:30:24;;;;;;;6.05;2.80;;;;;;;;;;5016328;28;20037;-75
2023/07/17 10:33:13;;;;;;;6.30;3.05;;;;;;;;;;5016311;28;20061;-74
2023/07/17 10:35:56;;;;;;;3.92;2.58;;;;;;;;;;5015525;28;20392;-75
2023/07/17 10:38:26;;;;;;;17.60;3.03;;;;;;;;;;5016634;28;20105;-75
2023/07/17 10:41:12;;;;;;;4.93;2.40;;;;;;;;;;5016401;28;20022;-75
2023/07/17 10:43:49;;;;;;;5.20;2.55;;;;;;;;;;5008102;28;20037;-74
2023/07/17 10:46:14;;;;;;;5.93;2.83;;;;;;;;;;5016664;28;20033;-74
2023/07/17 10:48:40;;;;;;;5.77;2.73;;;;;;;;;;5016423;28;20120;-74
2023/07/17 10:51:05;;;;;;;6.97;2.97;;;;;;;;;;5016497;28;20282;-74
2023/07/17 10:53:30;;;;;;;6.05;2.45;;;;;;;;;;5015896;28;20034;-74
2023/07/17 10:55:56;;;;;;;6.07;2.83;;;;;;;;;;5015638;28;20507;-72
2023/07/17 10:58:21;;;;;;;8.10;2.60;;;;;;;;;;5015770;28;20255;-74
2023/07/17 11:00:47;;;;;;;5.50;2.40;;;;;;;;;;5016057;28;20105;-74
2023/07/17 11:03:13;;;;;;;8.30;2.97;;;;;;;;;;5015829;28;20068;-74
2023/07/17 11:05:40;;;;;;;5.82;2.78;;;;;;;;;;5016035;28;20025;-73
2023/07/17 11:08:10;;;;;;;8.32;2.80;;;;;;;;;;5014309;28;20032;-73
2023/07/17 11:10:39;;;;;;;9.13;2.83;;;;;;;;;;5014767;28;20040;-75
2023/07/17 11:13:05;;;;;;;4.38;2.53;;;;;;;;;;5014636;28;20052;-76
2023/07/17 11:15:32;;;;;;;4.88;2.80;;;;;;;;;;5015574;28;20021;-76
2023/07/17 11:18:00;;;;;;;5.38;2.92;;;;;;;;;;5015384;28;20022;-76
2023/07/17 11:20:25;;;;;;;8.57;2.80;;;;;;;;;;5014577;28;20092;-75
2023/07/17 11:22:51;;;;;;;6.97;3.03;;;;;;;;;;5015756;28;20464;-78
2023/07/17 11:25:16;;;;;;;7.80;2.95;;;;;;;;;;5015455;28;20034;-76
2023/07/17 11:27:42;;;;;;;4.53;2.75;;;;;;;;;;5015215;28;20037;-76
2023/07/17 11:30:15;;;;;;;5.53;2.60;;;;;;;;;;5014547;28;20029;-77
2023/07/17 11:32:40;;;;;;;6.43;2.97;;;;;;;;;;5015142;28;20053;-76
2023/07/17 11:35:07;;;;;;;7.18;2.83;;;;;;;;;;5013935;28;20072;-77
2023/07/17 11:37:34;;;;;;;4.55;2.38;;;;;;;;;;5015061;28;20042;-77
2023/07/17 11:40:10;;;;;;;4.25;2.40;;;;;;;;;;5013768;28;20022;-76
2023/07/17 11:42:58;;;;;;;5.97;2.67;;;;;;;;;;5015292;28;20153;-76
2023/07/17 11:45:25;;;;;;;6.88;2.65;;;;;;;;;;5015397;28;20025;-76
2023/07/17 11:47:55;;;;;;;5.25;2.22;;;;;;;;;;5015203;28;20116;-76
2023/07/17 11:50:25;;;;;;;5.57;2.63;;;;;;;;;;5014641;28;20045;-76
2023/07/17 11:53:07;;;;;;;9.77;2.75;;;;;;;;;;5013620;28;20025;-76
2023/07/17 11:55:34;;;;;;;4.97;2.30;;;;;;;;;;5013070;28;20097;-76
2023/07/17 11:57:59;;;;;;;6.13;2.90;;;;;;;;;;5014827;28;20059;-76
2023/07/17 12:00:24;;;;;;;6.83;2.90;;;;;;;;;;5014662;28;20130;-75
2023/07/17 12:02:49;;;;;;;6.22;2.83;;;;;;;;;;5014901;28;20741;-76
2023/07/17 12:05:15;;;;;;;5.83;2.80;;;;;;;;;;5014580;28;20389;-76
2023/07/17 12:07:40;;;;;;;6.03;3.08;;;;;;;;;;5013253;28;20259;-76
2023/07/17 12:10:06;;;;;;;8.13;3.10;;;;;;;;;;5014495;28;20175;-76
2023/07/17 12:12:33;;;;;;;6.47;2.95;;;;;;;;;;5014519;28;20263;-75
2023/07/17 12:14:58;;;;;;;5.45;2.72;;;;;;;;;;5013215;28;20021;-76
2023/07/17 12:17:23;;;;;;;5.70;2.70;;;;;;;;;;5014240;28;20076;-76
2023/07/17 12:19:49;;;;;;;5.18;2.40;;;;;;;;;;5013402;28;20274;-76
2023/07/17 12:22:14;;;;;;;9.57;2.80;;;;;;;;;;5012379;28;20029;-76
2023/07/17 12:24:39;;;;;;;7.13;3.00;;;;;;;;;;5013729;28;20286;-76
2023/07/17 12:27:05;;;;;;;5.13;2.57;;;;;;;;;;5013999;28;20626;-76
2023/07/17 12:29:31;;;;;;;8.50;2.80;;;;;;;;;;5011320;28;20305;-76
2023/07/17 12:31:56;;;;;;;6.35;2.72;;;;;;;;;;5014310;28;20049;-76
2023/07/17 12:34:21;;;;;;;4.55;2.60;;;;;;;;;;5012800;28;20029;-76
2023/07/17 12:36:46;;;;;;;5.77;2.97;;;;;;;;;;5014058;28;20519;-76
2023/07/17 12:39:16;;;;;;;7.97;2.53;;;;;;;;;;5012649;28;20255;-76
2023/07/17 12:41:42;;;;;;;4.40;2.42;;;;;;;;;;5013877;28;20049;-76
2023/07/17 12:44:09;;;;;;;8.93;2.90;;;;;;;;;;5012600;28;20029;-75
2023/07/17 12:46:34;;;;;;;5.40;2.97;;;;;;;;;;5014536;28;20397;-76
2023/07/17 12:49:00;;;;;;;6.50;2.72;;;;;;;;;;5013806;28;20037;-76
2023/07/17 12:51:25;;;;;;;7.43;2.80;;;;;;;;;;5012344;28;20021;-76
2023/07/17 12:53:51;;;;;;;5.38;2.70;;;;;;;;;;5012147;28;20034;-77
2023/07/17 12:56:16;;;;;;;6.30;2.72;;;;;;;;;;5013762;28;20030;-77
2023/07/17 12:58:41;;;;;;;5.87;2.80;;;;;;;;;;5012405;28;20101;-77
2023/07/17 13:01:07;;;;;;;5.27;2.67;;;;;;;;;;5012465;28;20310;-76
2023/07/17 13:03:32;;;;;;;6.15;2.45;;;;;;;;;;5013980;28;20646;-76
2023/07/17 13:05:57;;;;;;;6.67;3.00;;;;;;;;;;5013634;28;20086;-75
2023/07/17 13:08:22;;;;;;;5.15;2.47;;;;;;;;;;5012604;28;20037;-77
2023/07/17 13:10:48;;;;;;;7.37;2.70;;;;;;;;;;5013415;28;20022;-76
2023/07/17 13:13:13;;;;;;;7.07;3.20;;;;;;;;;;5013594;28;20758;-76
2023/07/17 13:15:38;;;;;;;5.63;2.80;;;;;;;;;;5012264;28;20302;-76
2023/07/17 13:18:04;;;;;;;5.43;2.63;;;;;;;;;;5013240;28;20026;-76
2023/07/17 13:20:29;;;;;;;6.32;2.72;;;;;;;;;;5011957;28;20053;-76
2023/07/17 13:22:54;;;;;;;4.10;2.60;;;;;;;;;;5011992;28;20167;-77
2023/07/17 13:25:19;;;;;;;7.07;2.95;;;;;;;;;;5013348;28;20068;-76
2023/07/17 13:27:46;;;;;;;6.50;2.67;;;;;;;;;;5013393;28;20112;-77
2023/07/17 13:30:12;;;;;;;6.03;2.70;;;;;;;;;;5013070;28;20026;-76
2023/07/17 13:32:38;;;;;;;6.20;2.83;;;;;;;;;;5011914;28;20033;-76
2023/07/17 13:35:04;;;;;;;8.02;2.65;;;;;;;;;;5013284;28;20030;-76
2023/07/17 13:37:29;;;;;;;5.18;2.60;;;;;;;;;;5013042;28;20397;-76
2023/07/17 13:39:54;;;;;;;7.43;2.47;;;;;;;;;;5013102;28;20038;-77
2023/07/17 13:42:19;;;;;;;6.80;2.47;;;;;;;;;;5012968;28;20063;-76
2023/07/17 13:44:45;;;;;;;6.70;2.97;;;;;;;;;;5010977;28;20037;-77
2023/07/17 13:47:10;;;;;;;6.30;3.10;;;;;;;;;;5011597;28;20742;-76
2023/07/17 13:49:35;;;;;;;5.35;2.90;;;;;;;;;;5011847;28;20287;-77
2023/07/17 13:52:00;;;;;;;6.07;2.73;;;;;;;;;;5013320;28;20033;-76
2023/07/17 13:54:26;;;;;;;9.32;3.08;;;;;;;;;;5013285;28;20291;-76
2023/07/17 13:56:51;;;;;;;6.53;2.80;;;;;;;;;;5012224;28;20022;-75
2023/07/17 13:59:16;;;;;;;4.83;3.00;;;;;;;;;;5013009;28;20306;-76
2023/07/17 14:01:41;;;;;;;7.95;3.03;;;;;;;;;;5013006;28;20268;-75
2023/07/17 14:04:07;;;;;;;5.95;2.70;;;;;;;;;;5013030;28;20109;-76
2023/07/17 14:06:33;;;;;;;7.30;2.47;;;;;;;;;;5012911;28;20462;-76
2023/07/17 14:08:58;;;;;;;5.47;2.85;;;;;;;;;;5012896;28;20154;-77
2023/07/17 14:11:24;;;;;;;6.68;2.72;;;;;;;;;;5013395;28;20479;-76
2023/07/17 14:13:49;;;;;;;4.90;2.75;;;;;;;;;;5013132;28;20049;-77
2023/07/17 14:16:14;;;;;;;6.07;3.10;;;;;;;;;;5013171;28;20413;-76
2023/07/17 14:18:40;;;;;;;5.75;2.83;;;;;;;;;;5016054;28;20420;-76
2023/07/17 14:21:06;;;;;;;4.40;2.53;;;;;;;;;;5015257;28;20022;-76
2023/07/17 14:23:33;;;;;;;9.00;2.67;;;;;;;;;;5016770;28;20097;-76
2023/07/17 14:25:58;;;;;;;6.05;2.80;;;;;;;;;;5016524;28;20064;-74
2023/07/17 14:28:23;;;;;;;5.83;2.30;;;;;;;;;;5016461;28;20017;-77
2023/07/17 14:30:48;;;;;;;6.00;2.60;;;;;;;;;;5016772;28;20279;-77
2023/07/17 14:33:14;;;;;;;4.85;2.40;;;;;;;;;;5015034;28;20255;-76
2023/07/17 14:35:39;;;;;;;6.00;2.67;;;;;;;;;;5016461;28;20079;-76
2023/07/17 14:38:04;;;;;;;4.37;2.63;;;;;;;;;;5016595;28;20408;-76